sensor_id;sensor_type;location;lat;lon;timestamp;temperature;humidity
5576;DHT22;2810;50.134;8.626;2022-07-05T00:01:55;18.60;90.70
5576;DHT22;2810;50.134;8.626;2022-07-05T00:04:20;18.50;90.70
5576;DHT22;2810;50.134;8.626;2022-07-05T00:06:45;18.50;91.20
5576;DHT22;2810;50.134;8.626;2022-07-05T00:09:29;18.40;91.30
5576;DHT22;2810;50.134;8.626;2022-07-05T00:11:55;18.40;91.60
5576;DHT22;2810;50.134;8.626;2022-07-05T00:14:20;18.40;92.10
5576;DHT22;2810;50.134;8.626;2022-07-05T00:16:46;18.30;91.80
5576;DHT22;2810;50.134;8.626;2022-07-05T00:19:12;18.40;92.10
5576;DHT22;2810;50.134;8.626;2022-07-05T00:21:37;18.40;92.20
5576;DHT22;2810;50.134;8.626;2022-07-05T00:24:02;18.30;92.60
5576;DHT22;2810;50.134;8.626;2022-07-05T00:26:28;18.30;92.90
5576;DHT22;2810;50.134;8.626;2022-07-05T00:28:53;18.10;93.30
5576;DHT22;2810;50.134;8.626;2022-07-05T00:31:19;18.10;93.80
5576;DHT22;2810;50.134;8.626;2022-07-05T00:33:44;17.90;94.20
5576;DHT22;2810;50.134;8.626;2022-07-05T00:36:10;17.90;94.60
5576;DHT22;2810;50.134;8.626;2022-07-05T00:38:36;17.90;94.60
5576;DHT22;2810;50.134;8.626;2022-07-05T00:41:01;17.80;94.80
5576;DHT22;2810;50.134;8.626;2022-07-05T00:43:27;17.70;95.50
5576;DHT22;2810;50.134;8.626;2022-07-05T00:45:52;17.70;95.90
5576;DHT22;2810;50.134;8.626;2022-07-05T00:48:18;17.70;96.30
5576;DHT22;2810;50.134;8.626;2022-07-05T00:50:43;17.70;96.50
5576;DHT22;2810;50.134;8.626;2022-07-05T00:53:09;17.70;96.70
5576;DHT22;2810;50.134;8.626;2022-07-05T00:55:34;17.70;96.80
5576;DHT22;2810;50.134;8.626;2022-07-05T00:58:00;17.70;97.00
5576;DHT22;2810;50.134;8.626;2022-07-05T01:00:25;17.70;97.10
5576;DHT22;2810;50.134;8.626;2022-07-05T01:02:51;17.70;97.50
5576;DHT22;2810;50.134;8.626;2022-07-05T01:05:16;17.70;97.70
5576;DHT22;2810;50.134;8.626;2022-07-05T01:07:42;17.60;98.10
5576;DHT22;2810;50.134;8.626;2022-07-05T01:10:07;17.60;98.10
5576;DHT22;2810;50.134;8.626;2022-07-05T01:12:33;17.60;98.70
5576;DHT22;2810;50.134;8.626;2022-07-05T01:14:58;17.50;99.20
5576;DHT22;2810;50.134;8.626;2022-07-05T01:17:24;17.50;99.20
5576;DHT22;2810;50.134;8.626;2022-07-05T01:19:50;17.50;99.50
5576;DHT22;2810;50.134;8.626;2022-07-05T01:22:17;17.40;99.90
5576;DHT22;2810;50.134;8.626;2022-07-05T01:24:43;17.60;99.90
5576;DHT22;2810;50.134;8.626;2022-07-05T01:27:09;17.30;99.90
5576;DHT22;2810;50.134;8.626;2022-07-05T01:29:34;17.30;99.90
5576;DHT22;2810;50.134;8.626;2022-07-05T01:32:00;17.30;99.90
5576;DHT22;2810;50.134;8.626;2022-07-05T01:34:25;17.30;99.90
5576;DHT22;2810;50.134;8.626;2022-07-05T01:36:51;17.20;99.90
5576;DHT22;2810;50.134;8.626;2022-07-05T01:39:17;17.20;99.90
5576;DHT22;2810;50.134;8.626;2022-07-05T01:41:42;17.20;99.90
5576;DHT22;2810;50.134;8.626;2022-07-05T01:44:08;17.10;99.90
5576;DHT22;2810;50.134;8.626;2022-07-05T01:46:33;17.10;99.90
5576;DHT22;2810;50.134;8.626;2022-07-05T01:49:04;17.10;99.90
5576;DHT22;2810;50.134;8.626;2022-07-05T01:51:30;17.10;99.90
5576;DHT22;2810;50.134;8.626;2022-07-05T01:53:58;17.00;99.90
5576;DHT22;2810;50.134;8.626;2022-07-05T01:56:23;17.00;99.90
5576;DHT22;2810;50.134;8.626;2022-07-05T01:58:49;16.90;99.90
5576;DHT22;2810;50.134;8.626;2022-07-05T02:01:30;16.90;99.90
5576;DHT22;2810;50.134;8.626;2022-07-05T02:03:56;16.90;99.90
5576;DHT22;2810;50.134;8.626;2022-07-05T02:06:21;17.00;99.90
5576;DHT22;2810;50.134;8.626;2022-07-05T02:08:47;17.00;99.90
5576;DHT22;2810;50.134;8.626;2022-07-05T02:11:12;16.70;99.90
5576;DHT22;2810;50.134;8.626;2022-07-05T02:13:38;16.70;99.90
5576;DHT22;2810;50.134;8.626;2022-07-05T02:16:03;16.70;99.90
5576;DHT22;2810;50.134;8.626;2022-07-05T02:18:29;16.60;99.90
5576;DHT22;2810;50.134;8.626;2022-07-05T02:20:54;16.70;99.90
5576;DHT22;2810;50.134;8.626;2022-07-05T02:23:20;16.60;99.90
5576;DHT22;2810;50.134;8.626;2022-07-05T02:25:45;16.50;99.90
5576;DHT22;2810;50.134;8.626;2022-07-05T02:28:11;16.50;99.90
5576;DHT22;2810;50.134;8.626;2022-07-05T02:30:36;16.50;99.90
5576;DHT22;2810;50.134;8.626;2022-07-05T02:33:02;16.50;99.90
5576;DHT22;2810;50.134;8.626;2022-07-05T02:35:27;16.50;99.90
5576;DHT22;2810;50.134;8.626;2022-07-05T02:37:53;16.50;99.90
5576;DHT22;2810;50.134;8.626;2022-07-05T02:40:18;16.50;99.90
5576;DHT22;2810;50.134;8.626;2022-07-05T02:42:43;16.50;99.90
5576;DHT22;2810;50.134;8.626;2022-07-05T02:45:09;16.30;99.90
5576;DHT22;2810;50.134;8.626;2022-07-05T02:47:34;16.30;99.90
5576;DHT22;2810;50.134;8.626;2022-07-05T02:50:18;16.30;99.90
5576;DHT22;2810;50.134;8.626;2022-07-05T02:52:43;16.30;99.90
5576;DHT22;2810;50.134;8.626;2022-07-05T02:55:09;16.20;99.90
5576;DHT22;2810;50.134;8.626;2022-07-05T02:57:36;16.20;99.90
5576;DHT22;2810;50.134;8.626;2022-07-05T03:00:02;16.20;99.90
5576;DHT22;2810;50.134;8.626;2022-07-05T03:02:29;16.20;99.90
5576;DHT22;2810;50.134;8.626;2022-07-05T03:04:54;16.20;99.90
5576;DHT22;2810;50.134;8.626;2022-07-05T03:07:19;16.30;99.90
5576;DHT22;2810;50.134;8.626;2022-07-05T03:09:45;16.20;99.90
5576;DHT22;2810;50.134;8.626;2022-07-05T03:12:10;16.10;99.90
5576;DHT22;2810;50.134;8.626;2022-07-05T03:14:36;16.10;99.90
5576;DHT22;2810;50.134;8.626;2022-07-05T03:17:01;16.10;99.90
5576;DHT22;2810;50.134;8.626;2022-07-05T03:19:27;16.10;99.90
5576;DHT22;2810;50.134;8.626;2022-07-05T03:21:52;16.10;99.90
5576;DHT22;2810;50.134;8.626;2022-07-05T03:24:17;16.00;99.90
5576;DHT22;2810;50.134;8.626;2022-07-05T03:26:43;15.90;99.90
5576;DHT22;2810;50.134;8.626;2022-07-05T03:29:08;15.90;99.90
5576;DHT22;2810;50.134;8.626;2022-07-05T03:31:34;15.90;99.90
5576;DHT22;2810;50.134;8.626;2022-07-05T03:33:59;15.90;99.90
5576;DHT22;2810;50.134;8.626;2022-07-05T03:36:25;15.90;99.90
5576;DHT22;2810;50.134;8.626;2022-07-05T03:38:50;15.80;99.90
5576;DHT22;2810;50.134;8.626;2022-07-05T03:41:16;15.80;99.90
5576;DHT22;2810;50.134;8.626;2022-07-05T03:43:42;15.80;99.90
5576;DHT22;2810;50.134;8.626;2022-07-05T03:46:07;15.80;99.90
5576;DHT22;2810;50.134;8.626;2022-07-05T03:48:33;15.80;99.90
5576;DHT22;2810;50.134;8.626;2022-07-05T03:50:59;15.90;99.90
5576;DHT22;2810;50.134;8.626;2022-07-05T03:53:24;15.80;99.90
5576;DHT22;2810;50.134;8.626;2022-07-05T03:55:49;15.80;99.90
5576;DHT22;2810;50.134;8.626;2022-07-05T03:58:15;15.90;99.90
5576;DHT22;2810;50.134;8.626;2022-07-05T04:00:40;15.90;99.90
5576;DHT22;2810;50.134;8.626;2022-07-05T04:03:06;15.90;99.90
5576;DHT22;2810;50.134;8.626;2022-07-05T04:05:31;15.80;99.90
5576;DHT22;2810;50.134;8.626;2022-07-05T04:07:57;15.90;99.90
5576;DHT22;2810;50.134;8.626;2022-07-05T04:10:22;15.90;99.90
5576;DHT22;2810;50.134;8.626;2022-07-05T04:12:48;16.00;99.90
5576;DHT22;2810;50.134;8.626;2022-07-05T04:15:13;15.90;99.90
5576;DHT22;2810;50.134;8.626;2022-07-05T04:17:49;15.90;99.90
5576;DHT22;2810;50.134;8.626;2022-07-05T04:20:14;15.90;99.90
5576;DHT22;2810;50.134;8.626;2022-07-05T04:22:40;15.90;99.90
5576;DHT22;2810;50.134;8.626;2022-07-05T04:25:05;16.00;99.90
5576;DHT22;2810;50.134;8.626;2022-07-05T04:27:50;16.00;99.90
5576;DHT22;2810;50.134;8.626;2022-07-05T04:30:16;16.10;99.90
5576;DHT22;2810;50.134;8.626;2022-07-05T04:32:42;16.10;99.90
5576;DHT22;2810;50.134;8.626;2022-07-05T04:35:08;16.10;99.90
5576;DHT22;2810;50.134;8.626;2022-07-05T04:37:33;16.20;99.90
5576;DHT22;2810;50.134;8.626;2022-07-05T04:39:59;16.30;99.90
5576;DHT22;2810;50.134;8.626;2022-07-05T04:42:24;16.30;99.90
5576;DHT22;2810;50.134;8.626;2022-07-05T04:44:50;16.30;99.90
5576;DHT22;2810;50.134;8.626;2022-07-05T04:47:15;16.30;99.90
5576;DHT22;2810;50.134;8.626;2022-07-05T04:49:40;16.40;99.90
5576;DHT22;2810;50.134;8.626;2022-07-05T04:52:06;16.40;99.90
5576;DHT22;2810;50.134;8.626;2022-07-05T04:54:31;16.40;99.90
5576;DHT22;2810;50.134;8.626;2022-07-05T04:56:57;16.50;99.90
5576;DHT22;2810;50.134;8.626;2022-07-05T04:59:22;16.50;99.90
5576;DHT22;2810;50.134;8.626;2022-07-05T05:01:48;16.60;99.90
5576;DHT22;2810;50.134;8.626;2022-07-05T05:04:13;16.70;99.90
5576;DHT22;2810;50.134;8.626;2022-07-05T05:06:39;16.80;99.90
5576;DHT22;2810;50.134;8.626;2022-07-05T05:09:04;16.80;99.90
5576;DHT22;2810;50.134;8.626;2022-07-05T05:11:29;16.80;99.90
5576;DHT22;2810;50.134;8.626;2022-07-05T05:13:55;16.80;99.90
5576;DHT22;2810;50.134;8.626;2022-07-05T05:16:20;16.90;99.90
5576;DHT22;2810;50.134;8.626;2022-07-05T05:18:46;17.00;99.90
5576;DHT22;2810;50.134;8.626;2022-07-05T05:21:11;17.00;99.90
5576;DHT22;2810;50.134;8.626;2022-07-05T05:23:37;17.10;99.90
5576;DHT22;2810;50.134;8.626;2022-07-05T05:26:02;17.20;99.90
5576;DHT22;2810;50.134;8.626;2022-07-05T05:28:27;17.30;99.90
5576;DHT22;2810;50.134;8.626;2022-07-05T05:30:53;17.40;99.90
5576;DHT22;2810;50.134;8.626;2022-07-05T05:33:18;17.50;99.90
5576;DHT22;2810;50.134;8.626;2022-07-05T05:35:44;17.60;99.90
5576;DHT22;2810;50.134;8.626;2022-07-05T05:38:09;17.70;99.90
5576;DHT22;2810;50.134;8.626;2022-07-05T05:40:35;17.70;99.90
5576;DHT22;2810;50.134;8.626;2022-07-05T05:43:02;17.80;99.90
5576;DHT22;2810;50.134;8.626;2022-07-05T05:45:28;17.90;99.90
5576;DHT22;2810;50.134;8.626;2022-07-05T05:47:57;17.80;99.90
5576;DHT22;2810;50.134;8.626;2022-07-05T05:50:25;18.00;99.90
5576;DHT22;2810;50.134;8.626;2022-07-05T05:52:51;18.10;99.90
5576;DHT22;2810;50.134;8.626;2022-07-05T05:55:17;18.50;99.90
5576;DHT22;2810;50.134;8.626;2022-07-05T05:57:43;18.40;99.90
5576;DHT22;2810;50.134;8.626;2022-07-05T06:00:08;18.40;99.90
5576;DHT22;2810;50.134;8.626;2022-07-05T06:02:34;18.50;99.90
5576;DHT22;2810;50.134;8.626;2022-07-05T06:04:59;18.60;99.90
5576;DHT22;2810;50.134;8.626;2022-07-05T06:07:25;18.80;99.90
5576;DHT22;2810;50.134;8.626;2022-07-05T06:09:50;19.00;99.90
5576;DHT22;2810;50.134;8.626;2022-07-05T06:12:16;19.20;99.90
5576;DHT22;2810;50.134;8.626;2022-07-05T06:14:41;19.30;99.90
5576;DHT22;2810;50.134;8.626;2022-07-05T06:17:07;19.50;99.90
5576;DHT22;2810;50.134;8.626;2022-07-05T06:19:32;19.60;99.90
5576;DHT22;2810;50.134;8.626;2022-07-05T06:21:58;19.70;99.90
5576;DHT22;2810;50.134;8.626;2022-07-05T06:24:23;19.90;99.90
5576;DHT22;2810;50.134;8.626;2022-07-05T06:26:48;20.00;99.90
5576;DHT22;2810;50.134;8.626;2022-07-05T06:29:14;20.20;99.90
5576;DHT22;2810;50.134;8.626;2022-07-05T06:31:39;20.30;99.90
5576;DHT22;2810;50.134;8.626;2022-07-05T06:34:05;20.50;99.90
5576;DHT22;2810;50.134;8.626;2022-07-05T06:36:30;20.60;99.90
5576;DHT22;2810;50.134;8.626;2022-07-05T06:38:56;20.80;99.90
5576;DHT22;2810;50.134;8.626;2022-07-05T06:41:21;21.20;99.90
5576;DHT22;2810;50.134;8.626;2022-07-05T06:43:46;21.70;99.90
5576;DHT22;2810;50.134;8.626;2022-07-05T06:46:12;22.40;99.90
5576;DHT22;2810;50.134;8.626;2022-07-05T06:48:37;23.10;99.90
5576;DHT22;2810;50.134;8.626;2022-07-05T06:51:03;23.70;99.90
5576;DHT22;2810;50.134;8.626;2022-07-05T06:53:28;24.20;99.90
5576;DHT22;2810;50.134;8.626;2022-07-05T06:55:54;24.50;99.20
5576;DHT22;2810;50.134;8.626;2022-07-05T06:58:19;24.90;98.80
5576;DHT22;2810;50.134;8.626;2022-07-05T07:00:44;25.30;96.40
5576;DHT22;2810;50.134;8.626;2022-07-05T07:03:10;25.70;96.00
5576;DHT22;2810;50.134;8.626;2022-07-05T07:05:35;26.00;94.80
5576;DHT22;2810;50.134;8.626;2022-07-05T07:08:01;26.50;93.30
5576;DHT22;2810;50.134;8.626;2022-07-05T07:10:45;26.60;93.10
5576;DHT22;2810;50.134;8.626;2022-07-05T07:13:11;26.70;92.60
5576;DHT22;2810;50.134;8.626;2022-07-05T07:15:36;27.00;91.70
5576;DHT22;2810;50.134;8.626;2022-07-05T07:18:03;27.20;90.50
5576;DHT22;2810;50.134;8.626;2022-07-05T07:20:28;27.30;90.40
5576;DHT22;2810;50.134;8.626;2022-07-05T07:22:54;27.50;88.10
5576;DHT22;2810;50.134;8.626;2022-07-05T07:25:20;27.90;88.70
5576;DHT22;2810;50.134;8.626;2022-07-05T07:27:47;27.80;86.50
5576;DHT22;2810;50.134;8.626;2022-07-05T07:30:13;28.20;84.30
5576;DHT22;2810;50.134;8.626;2022-07-05T07:32:41;28.40;80.90
5576;DHT22;2810;50.134;8.626;2022-07-05T07:35:07;28.50;82.60
5576;DHT22;2810;50.134;8.626;2022-07-05T07:37:32;28.80;81.50
5576;DHT22;2810;50.134;8.626;2022-07-05T07:39:58;29.00;78.10
5576;DHT22;2810;50.134;8.626;2022-07-05T07:42:24;29.30;79.00
5576;DHT22;2810;50.134;8.626;2022-07-05T07:44:49;29.50;77.90
5576;DHT22;2810;50.134;8.626;2022-07-05T07:47:14;29.60;75.80
5576;DHT22;2810;50.134;8.626;2022-07-05T07:49:40;29.80;74.20
5576;DHT22;2810;50.134;8.626;2022-07-05T07:52:06;29.90;73.00
5576;DHT22;2810;50.134;8.626;2022-07-05T07:54:32;30.10;72.80
5576;DHT22;2810;50.134;8.626;2022-07-05T07:56:57;30.40;72.10
5576;DHT22;2810;50.134;8.626;2022-07-05T07:59:24;30.70;68.50
5576;DHT22;2810;50.134;8.626;2022-07-05T08:01:50;30.90;70.50
5576;DHT22;2810;50.134;8.626;2022-07-05T08:04:15;31.10;63.70
5576;DHT22;2810;50.134;8.626;2022-07-05T08:06:41;30.90;65.40
5576;DHT22;2810;50.134;8.626;2022-07-05T08:09:07;30.90;63.50
5576;DHT22;2810;50.134;8.626;2022-07-05T08:11:32;30.90;62.60
5576;DHT22;2810;50.134;8.626;2022-07-05T08:13:58;31.00;64.30
5576;DHT22;2810;50.134;8.626;2022-07-05T08:16:23;31.10;64.70
5576;DHT22;2810;50.134;8.626;2022-07-05T08:18:49;31.20;61.50
5576;DHT22;2810;50.134;8.626;2022-07-05T08:21:33;31.60;62.90
5576;DHT22;2810;50.134;8.626;2022-07-05T08:24:09;31.60;59.70
5576;DHT22;2810;50.134;8.626;2022-07-05T08:26:35;31.70;59.20
5576;DHT22;2810;50.134;8.626;2022-07-05T08:29:02;31.80;58.70
5576;DHT22;2810;50.134;8.626;2022-07-05T08:31:30;32.00;58.40
5576;DHT22;2810;50.134;8.626;2022-07-05T08:33:56;31.90;59.40
5576;DHT22;2810;50.134;8.626;2022-07-05T08:36:22;32.10;58.00
5576;DHT22;2810;50.134;8.626;2022-07-05T08:38:47;32.40;56.70
5576;DHT22;2810;50.134;8.626;2022-07-05T08:41:13;32.10;55.70
5576;DHT22;2810;50.134;8.626;2022-07-05T08:43:42;31.70;55.90
5576;DHT22;2810;50.134;8.626;2022-07-05T08:46:09;31.80;56.30
5576;DHT22;2810;50.134;8.626;2022-07-05T08:48:37;32.10;56.60
5576;DHT22;2810;50.134;8.626;2022-07-05T08:51:09;32.60;55.50
5576;DHT22;2810;50.134;8.626;2022-07-05T08:53:35;32.70;53.80
5576;DHT22;2810;50.134;8.626;2022-07-05T08:56:01;32.80;53.60
5576;DHT22;2810;50.134;8.626;2022-07-05T08:58:27;33.10;51.00
5576;DHT22;2810;50.134;8.626;2022-07-05T09:00:52;32.80;51.60
5576;DHT22;2810;50.134;8.626;2022-07-05T09:03:18;32.60;51.70
5576;DHT22;2810;50.134;8.626;2022-07-05T09:05:44;31.80;54.30
5576;DHT22;2810;50.134;8.626;2022-07-05T09:08:12;30.90;54.50
5576;DHT22;2810;50.134;8.626;2022-07-05T09:10:39;29.80;54.50
5576;DHT22;2810;50.134;8.626;2022-07-05T09:13:04;29.10;55.90
5576;DHT22;2810;50.134;8.626;2022-07-05T09:15:30;29.00;55.80
5576;DHT22;2810;50.134;8.626;2022-07-05T09:17:55;29.80;55.20
5576;DHT22;2810;50.134;8.626;2022-07-05T09:20:21;30.60;53.10
5576;DHT22;2810;50.134;8.626;2022-07-05T09:22:53;31.20;52.40
5576;DHT22;2810;50.134;8.626;2022-07-05T09:25:20;31.60;53.20
5576;DHT22;2810;50.134;8.626;2022-07-05T09:27:50;32.10;51.70
5576;DHT22;2810;50.134;8.626;2022-07-05T09:33:00;32.30;50.40
5576;DHT22;2810;50.134;8.626;2022-07-05T09:35:29;31.80;52.30
5576;DHT22;2810;50.134;8.626;2022-07-05T09:37:55;32.00;51.40
5576;DHT22;2810;50.134;8.626;2022-07-05T09:40:20;32.10;50.20
5576;DHT22;2810;50.134;8.626;2022-07-05T09:42:46;31.80;50.80
5576;DHT22;2810;50.134;8.626;2022-07-05T09:45:11;31.70;51.60
5576;DHT22;2810;50.134;8.626;2022-07-05T09:47:37;32.10;50.40
5576;DHT22;2810;50.134;8.626;2022-07-05T09:50:02;32.30;50.90
5576;DHT22;2810;50.134;8.626;2022-07-05T09:52:33;32.20;50.20
5576;DHT22;2810;50.134;8.626;2022-07-05T09:55:15;32.40;51.20
5576;DHT22;2810;50.134;8.626;2022-07-05T09:57:45;32.50;49.40
5576;DHT22;2810;50.134;8.626;2022-07-05T10:00:13;31.20;50.20
5576;DHT22;2810;50.134;8.626;2022-07-05T10:02:40;30.50;50.80
5576;DHT22;2810;50.134;8.626;2022-07-05T10:05:09;30.60;49.80
5576;DHT22;2810;50.134;8.626;2022-07-05T10:07:35;31.00;48.50
5576;DHT22;2810;50.134;8.626;2022-07-05T10:10:02;31.30;48.70
5576;DHT22;2810;50.134;8.626;2022-07-05T10:12:28;31.90;49.50
5576;DHT22;2810;50.134;8.626;2022-07-05T10:14:53;32.30;48.40
5576;DHT22;2810;50.134;8.626;2022-07-05T10:17:19;32.60;48.60
5576;DHT22;2810;50.134;8.626;2022-07-05T10:19:45;32.70;47.60
5576;DHT22;2810;50.134;8.626;2022-07-05T10:22:11;32.80;47.20
5576;DHT22;2810;50.134;8.626;2022-07-05T10:24:37;32.70;47.70
5576;DHT22;2810;50.134;8.626;2022-07-05T10:27:06;32.80;47.60
5576;DHT22;2810;50.134;8.626;2022-07-05T10:29:33;32.90;46.70
5576;DHT22;2810;50.134;8.626;2022-07-05T10:31:59;33.00;46.00
5576;DHT22;2810;50.134;8.626;2022-07-05T10:34:25;33.10;45.50
5576;DHT22;2810;50.134;8.626;2022-07-05T10:36:50;32.80;47.00
5576;DHT22;2810;50.134;8.626;2022-07-05T10:39:15;33.10;48.00
5576;DHT22;2810;50.134;8.626;2022-07-05T10:41:41;32.90;47.70
5576;DHT22;2810;50.134;8.626;2022-07-05T10:44:07;33.10;47.40
5576;DHT22;2810;50.134;8.626;2022-07-05T10:46:33;33.60;47.20
5576;DHT22;2810;50.134;8.626;2022-07-05T10:49:15;32.90;46.00
5576;DHT22;2810;50.134;8.626;2022-07-05T10:51:41;32.90;47.50
5576;DHT22;2810;50.134;8.626;2022-07-05T10:54:07;32.90;48.10
5576;DHT22;2810;50.134;8.626;2022-07-05T10:56:32;33.00;48.00
5576;DHT22;2810;50.134;8.626;2022-07-05T10:59:04;32.90;47.40
5576;DHT22;2810;50.134;8.626;2022-07-05T11:01:32;32.60;48.00
5576;DHT22;2810;50.134;8.626;2022-07-05T11:06:27;32.50;48.80
5576;DHT22;2810;50.134;8.626;2022-07-05T11:13:49;32.90;48.00
5576;DHT22;2810;50.134;8.626;2022-07-05T11:18:54;31.70;48.80
5576;DHT22;2810;50.134;8.626;2022-07-05T11:21:29;31.80;49.70
5576;DHT22;2810;50.134;8.626;2022-07-05T11:23:55;32.20;48.80
5576;DHT22;2810;50.134;8.626;2022-07-05T11:26:39;32.40;48.70
5576;DHT22;2810;50.134;8.626;2022-07-05T11:29:05;32.30;47.40
5576;DHT22;2810;50.134;8.626;2022-07-05T11:31:40;31.50;49.10
5576;DHT22;2810;50.134;8.626;2022-07-05T11:34:12;31.60;49.50
5576;DHT22;2810;50.134;8.626;2022-07-05T11:36:37;31.80;49.70
5576;DHT22;2810;50.134;8.626;2022-07-05T11:39:07;31.90;49.40
5576;DHT22;2810;50.134;8.626;2022-07-05T11:41:32;32.20;49.30
5576;DHT22;2810;50.134;8.626;2022-07-05T11:43:58;32.10;48.80
5576;DHT22;2810;50.134;8.626;2022-07-05T11:46:23;32.10;49.50
5576;DHT22;2810;50.134;8.626;2022-07-05T11:48:49;31.60;49.40
5576;DHT22;2810;50.134;8.626;2022-07-05T11:51:15;31.00;48.40
5576;DHT22;2810;50.134;8.626;2022-07-05T11:53:40;30.50;50.40
5576;DHT22;2810;50.134;8.626;2022-07-05T11:56:07;30.70;50.60
5576;DHT22;2810;50.134;8.626;2022-07-05T11:58:33;30.90;49.10
5576;DHT22;2810;50.134;8.626;2022-07-05T12:00:58;31.00;49.10
5576;DHT22;2810;50.134;8.626;2022-07-05T12:03:24;31.30;49.60
5576;DHT22;2810;50.134;8.626;2022-07-05T12:05:50;30.70;48.70
5576;DHT22;2810;50.134;8.626;2022-07-05T12:08:19;30.50;48.60
5576;DHT22;2810;50.134;8.626;2022-07-05T12:10:47;30.60;49.40
5576;DHT22;2810;50.134;8.626;2022-07-05T12:13:41;30.70;50.00
5576;DHT22;2810;50.134;8.626;2022-07-05T12:16:06;31.10;49.30
5576;DHT22;2810;50.134;8.626;2022-07-05T12:18:45;30.80;48.80
5576;DHT22;2810;50.134;8.626;2022-07-05T12:21:13;30.80;49.90
5576;DHT22;2810;50.134;8.626;2022-07-05T12:23:43;30.90;47.30
5576;DHT22;2810;50.134;8.626;2022-07-05T12:26:11;30.80;46.40
5576;DHT22;2810;50.134;8.626;2022-07-05T12:28:36;30.60;47.50
5576;DHT22;2810;50.134;8.626;2022-07-05T12:31:18;30.60;47.60
5576;DHT22;2810;50.134;8.626;2022-07-05T12:33:44;30.70;47.00
5576;DHT22;2810;50.134;8.626;2022-07-05T12:36:13;30.50;46.10
5576;DHT22;2810;50.134;8.626;2022-07-05T12:38:38;30.20;47.00
5576;DHT22;2810;50.134;8.626;2022-07-05T12:41:04;30.40;47.60
5576;DHT22;2810;50.134;8.626;2022-07-05T12:43:29;30.50;47.00
5576;DHT22;2810;50.134;8.626;2022-07-05T12:46:04;30.70;47.30
5576;DHT22;2810;50.134;8.626;2022-07-05T12:48:31;30.80;46.30
5576;DHT22;2810;50.134;8.626;2022-07-05T12:50:59;30.70;46.60
5576;DHT22;2810;50.134;8.626;2022-07-05T12:53:25;30.60;46.00
5576;DHT22;2810;50.134;8.626;2022-07-05T12:56:11;30.60;46.50
5576;DHT22;2810;50.134;8.626;2022-07-05T12:58:55;30.30;46.10
5576;DHT22;2810;50.134;8.626;2022-07-05T13:04:00;30.60;47.30
5576;DHT22;2810;50.134;8.626;2022-07-05T13:06:41;30.60;46.00
5576;DHT22;2810;50.134;8.626;2022-07-05T13:09:08;30.70;46.20
5576;DHT22;2810;50.134;8.626;2022-07-05T13:11:33;30.70;46.40
5576;DHT22;2810;50.134;8.626;2022-07-05T13:13:59;30.70;45.20
5576;DHT22;2810;50.134;8.626;2022-07-05T13:16:24;30.40;45.50
5576;DHT22;2810;50.134;8.626;2022-07-05T13:18:50;30.60;45.50
5576;DHT22;2810;50.134;8.626;2022-07-05T13:21:15;30.40;46.30
5576;DHT22;2810;50.134;8.626;2022-07-05T13:23:41;30.20;46.40
5576;DHT22;2810;50.134;8.626;2022-07-05T13:26:06;30.10;47.00
5576;DHT22;2810;50.134;8.626;2022-07-05T13:28:32;30.10;46.90
5576;DHT22;2810;50.134;8.626;2022-07-05T13:30:57;30.20;45.80
5576;DHT22;2810;50.134;8.626;2022-07-05T13:33:22;30.10;46.60
5576;DHT22;2810;50.134;8.626;2022-07-05T13:35:48;30.30;47.40
5576;DHT22;2810;50.134;8.626;2022-07-05T13:38:13;30.30;47.20
5576;DHT22;2810;50.134;8.626;2022-07-05T13:40:39;30.60;47.30
5576;DHT22;2810;50.134;8.626;2022-07-05T13:43:05;30.50;47.50
5576;DHT22;2810;50.134;8.626;2022-07-05T13:45:30;30.30;47.90
5576;DHT22;2810;50.134;8.626;2022-07-05T13:47:56;30.10;47.80
5576;DHT22;2810;50.134;8.626;2022-07-05T13:50:21;29.90;47.50
5576;DHT22;2810;50.134;8.626;2022-07-05T13:52:56;29.80;48.40
5576;DHT22;2810;50.134;8.626;2022-07-05T13:55:21;29.40;48.90
5576;DHT22;2810;50.134;8.626;2022-07-05T13:57:47;29.40;49.60
5576;DHT22;2810;50.134;8.626;2022-07-05T14:00:12;29.30;49.60
5576;DHT22;2810;50.134;8.626;2022-07-05T14:02:38;29.30;50.10
5576;DHT22;2810;50.134;8.626;2022-07-05T14:05:04;29.50;50.20
5576;DHT22;2810;50.134;8.626;2022-07-05T14:07:29;29.60;49.90
5576;DHT22;2810;50.134;8.626;2022-07-05T14:09:55;29.70;49.80
5576;DHT22;2810;50.134;8.626;2022-07-05T14:12:20;30.00;50.40
5576;DHT22;2810;50.134;8.626;2022-07-05T14:14:45;29.70;49.40
5576;DHT22;2810;50.134;8.626;2022-07-05T14:17:11;29.90;50.20
5576;DHT22;2810;50.134;8.626;2022-07-05T14:19:36;29.90;49.70
5576;DHT22;2810;50.134;8.626;2022-07-05T14:22:03;30.00;49.60
5576;DHT22;2810;50.134;8.626;2022-07-05T14:24:28;30.00;50.00
5576;DHT22;2810;50.134;8.626;2022-07-05T14:26:54;29.80;49.60
5576;DHT22;2810;50.134;8.626;2022-07-05T14:29:19;29.60;50.30
5576;DHT22;2810;50.134;8.626;2022-07-05T14:31:45;29.70;51.50
5576;DHT22;2810;50.134;8.626;2022-07-05T14:34:10;29.80;49.80
5576;DHT22;2810;50.134;8.626;2022-07-05T14:36:35;29.60;50.00
5576;DHT22;2810;50.134;8.626;2022-07-05T14:39:01;29.30;50.00
5576;DHT22;2810;50.134;8.626;2022-07-05T14:41:27;29.00;50.90
5576;DHT22;2810;50.134;8.626;2022-07-05T14:43:53;28.80;51.60
5576;DHT22;2810;50.134;8.626;2022-07-05T14:46:19;28.80;51.00
5576;DHT22;2810;50.134;8.626;2022-07-05T14:48:45;29.00;52.40
5576;DHT22;2810;50.134;8.626;2022-07-05T14:51:10;28.70;52.90
5576;DHT22;2810;50.134;8.626;2022-07-05T14:53:36;28.90;52.70
5576;DHT22;2810;50.134;8.626;2022-07-05T14:56:01;28.80;52.20
5576;DHT22;2810;50.134;8.626;2022-07-05T14:58:27;28.70;52.80
5576;DHT22;2810;50.134;8.626;2022-07-05T15:00:57;28.70;53.00
5576;DHT22;2810;50.134;8.626;2022-07-05T15:03:22;28.80;54.00
5576;DHT22;2810;50.134;8.626;2022-07-05T15:05:49;28.60;54.30
5576;DHT22;2810;50.134;8.626;2022-07-05T15:08:14;28.60;54.20
5576;DHT22;2810;50.134;8.626;2022-07-05T15:10:40;28.40;54.60
5576;DHT22;2810;50.134;8.626;2022-07-05T15:13:05;28.40;54.60
5576;DHT22;2810;50.134;8.626;2022-07-05T15:15:32;28.60;54.40
5576;DHT22;2810;50.134;8.626;2022-07-05T15:17:58;28.70;53.70
5576;DHT22;2810;50.134;8.626;2022-07-05T15:20:24;28.60;53.80
5576;DHT22;2810;50.134;8.626;2022-07-05T15:22:49;28.70;54.30
5576;DHT22;2810;50.134;8.626;2022-07-05T15:25:15;28.70;54.10
5576;DHT22;2810;50.134;8.626;2022-07-05T15:27:41;28.80;53.40
5576;DHT22;2810;50.134;8.626;2022-07-05T15:30:06;28.80;53.50
5576;DHT22;2810;50.134;8.626;2022-07-05T15:32:32;28.80;53.60
5576;DHT22;2810;50.134;8.626;2022-07-05T15:34:57;28.70;53.40
5576;DHT22;2810;50.134;8.626;2022-07-05T15:37:23;28.60;52.60
5576;DHT22;2810;50.134;8.626;2022-07-05T15:39:48;28.30;53.00
5576;DHT22;2810;50.134;8.626;2022-07-05T15:42:14;28.40;54.10
5576;DHT22;2810;50.134;8.626;2022-07-05T15:44:41;28.40;54.30
5576;DHT22;2810;50.134;8.626;2022-07-05T15:47:06;28.60;55.00
5576;DHT22;2810;50.134;8.626;2022-07-05T15:49:36;28.60;54.90
5576;DHT22;2810;50.134;8.626;2022-07-05T15:52:02;28.60;55.20
5576;DHT22;2810;50.134;8.626;2022-07-05T15:54:28;28.60;54.70
5576;DHT22;2810;50.134;8.626;2022-07-05T15:56:53;28.50;54.90
5576;DHT22;2810;50.134;8.626;2022-07-05T15:59:19;28.20;55.60
5576;DHT22;2810;50.134;8.626;2022-07-05T16:01:44;28.20;56.50
5576;DHT22;2810;50.134;8.626;2022-07-05T16:04:10;27.80;55.40
5576;DHT22;2810;50.134;8.626;2022-07-05T16:06:35;27.80;56.30
5576;DHT22;2810;50.134;8.626;2022-07-05T16:09:01;27.70;55.90
5576;DHT22;2810;50.134;8.626;2022-07-05T16:11:26;27.60;56.40
5576;DHT22;2810;50.134;8.626;2022-07-05T16:13:52;27.70;56.10